sensor_id;sensor_type;location;lat;lon;timestamp;pressure;altitude;pressure_sealevel;temperature;humidity
5484;BME280;2764;48.794;8.326;2023-01-29T00:00:13;101084.97;;;0.74;97.41
5484;BME280;2764;48.794;8.326;2023-01-29T00:01:16;101183.47;;;1.11;97.55
5484;BME280;2764;48.794;8.326;2023-01-29T00:02:18;101095.34;;;0.78;97.30
5484;BME280;2764;48.794;8.326;2023-01-29T00:03:20;101112.75;;;0.93;97.84
5484;BME280;2764;48.794;8.326;2023-01-29T00:04:22;101097.78;;;0.72;98.01
5484;BME280;2764;48.794;8.326;2023-01-29T00:05:24;101051.41;;;0.69;98.17
5484;BME280;2764;48.794;8.326;2023-01-29T00:06:29;101133.72;;;1.14;98.32
5484;BME280;2764;48.794;8.326;2023-01-29T00:07:34;101112.63;;;0.85;98.29
5484;BME280;2764;48.794;8.326;2023-01-29T00:08:36;101147.75;;;0.83;98.16
5484;BME280;2764;48.794;8.326;2023-01-29T00:09:41;101009.16;;;0.09;98.04
5484;BME280;2764;48.794;8.326;2023-01-29T00:10:43;101128.50;;;1.11;97.96
5484;BME280;2764;48.794;8.326;2023-01-29T00:11:45;101044.28;;;0.53;97.78
5484;BME280;2764;48.794;8.326;2023-01-29T00:12:46;101088.13;;;0.60;97.79
5484;BME280;2764;48.794;8.326;2023-01-29T00:13:48;100956.84;;;0.07;97.82
5484;BME280;2764;48.794;8.326;2023-01-29T00:14:51;101105.97;;;0.99;97.86
5484;BME280;2764;48.794;8.326;2023-01-29T00:15:57;101008.91;;;0.43;97.43
5484;BME280;2764;48.794;8.326;2023-01-29T00:16:59;101053.31;;;0.33;97.12
5484;BME280;2764;48.794;8.326;2023-01-29T00:18:00;101112.16;;;1.09;97.51
5484;BME280;2764;48.794;8.326;2023-01-29T00:19:02;101012.25;;;0.37;97.09
5484;BME280;2764;48.794;8.326;2023-01-29T00:20:05;101094.88;;;1.02;97.81
5484;BME280;2764;48.794;8.326;2023-01-29T00:21:15;101117.50;;;1.19;98.78
5484;BME280;2764;48.794;8.326;2023-01-29T00:22:17;101118.13;;;1.06;98.56
5484;BME280;2764;48.794;8.326;2023-01-29T00:23:18;100985.59;;;0.34;98.50
5484;BME280;2764;48.794;8.326;2023-01-29T00:24:20;100989.13;;;0.39;98.42
5484;BME280;2764;48.794;8.326;2023-01-29T00:25:23;101122.50;;;1.10;98.75
5484;BME280;2764;48.794;8.326;2023-01-29T00:26:25;101002.25;;;0.55;98.83
5484;BME280;2764;48.794;8.326;2023-01-29T00:27:27;101024.59;;;0.56;99.43
5484;BME280;2764;48.794;8.326;2023-01-29T00:28:28;101149.16;;;1.12;99.37
5484;BME280;2764;48.794;8.326;2023-01-29T00:29:30;101006.50;;;0.53;99.37
5484;BME280;2764;48.794;8.326;2023-01-29T00:30:32;101090.19;;;0.78;99.33
5484;BME280;2764;48.794;8.326;2023-01-29T00:31:34;101045.03;;;0.49;98.98
5484;BME280;2764;48.794;8.326;2023-01-29T00:32:35;101057.63;;;0.83;99.43
5484;BME280;2764;48.794;8.326;2023-01-29T00:33:37;101063.56;;;0.78;99.12
5484;BME280;2764;48.794;8.326;2023-01-29T00:34:39;100965.75;;;0.27;99.61
5484;BME280;2764;48.794;8.326;2023-01-29T00:35:41;100942.53;;;-0.26;99.35
5484;BME280;2764;48.794;8.326;2023-01-29T00:36:42;101107.94;;;1.14;99.40
5484;BME280;2764;48.794;8.326;2023-01-29T00:37:45;101125.19;;;1.18;99.56
5484;BME280;2764;48.794;8.326;2023-01-29T00:38:56;101126.88;;;1.16;99.53
5484;BME280;2764;48.794;8.326;2023-01-29T00:40:04;101106.56;;;0.83;99.19
5484;BME280;2764;48.794;8.326;2023-01-29T00:41:11;101022.06;;;0.59;98.42
5484;BME280;2764;48.794;8.326;2023-01-29T00:42:31;101073.44;;;0.53;98.81
5484;BME280;2764;48.794;8.326;2023-01-29T00:43:51;101090.34;;;0.87;99.14
5484;BME280;2764;48.794;8.326;2023-01-29T00:45:12;101133.78;;;1.18;99.55
5484;BME280;2764;48.794;8.326;2023-01-29T00:46:13;101124.94;;;1.03;99.25
5484;BME280;2764;48.794;8.326;2023-01-29T00:47:15;101007.09;;;0.37;99.08
5484;BME280;2764;48.794;8.326;2023-01-29T00:48:35;100957.19;;;0.28;99.31
5484;BME280;2764;48.794;8.326;2023-01-29T00:49:37;101088.66;;;0.89;99.42
5484;BME280;2764;48.794;8.326;2023-01-29T00:50:39;100913.84;;;-0.01;99.44
5484;BME280;2764;48.794;8.326;2023-01-29T00:51:41;101028.88;;;0.56;98.97
5484;BME280;2764;48.794;8.326;2023-01-29T00:52:42;101166.22;;;1.06;99.26
5484;BME280;2764;48.794;8.326;2023-01-29T00:53:44;101138.88;;;1.14;99.62
5484;BME280;2764;48.794;8.326;2023-01-29T00:54:46;101104.41;;;1.07;99.74
5484;BME280;2764;48.794;8.326;2023-01-29T00:55:48;101107.56;;;0.91;99.38
5484;BME280;2764;48.794;8.326;2023-01-29T00:56:49;101093.06;;;0.96;99.10
5484;BME280;2764;48.794;8.326;2023-01-29T00:57:51;101091.16;;;0.86;98.96
5484;BME280;2764;48.794;8.326;2023-01-29T00:58:53;101127.78;;;0.70;98.99
5484;BME280;2764;48.794;8.326;2023-01-29T00:59:55;101095.50;;;0.87;99.53
5484;BME280;2764;48.794;8.326;2023-01-29T01:00:57;101104.09;;;0.89;99.27
5484;BME280;2764;48.794;8.326;2023-01-29T01:01:58;101026.56;;;0.23;99.29
5484;BME280;2764;48.794;8.326;2023-01-29T01:03:20;101116.19;;;0.95;99.03
5484;BME280;2764;48.794;8.326;2023-01-29T01:04:22;101126.63;;;1.01;99.25
5484;BME280;2764;48.794;8.326;2023-01-29T01:05:24;100993.31;;;0.34;99.37
5484;BME280;2764;48.794;8.326;2023-01-29T01:06:25;101106.47;;;0.79;99.26
5484;BME280;2764;48.794;8.326;2023-01-29T01:07:28;101009.59;;;0.33;98.45
5484;BME280;2764;48.794;8.326;2023-01-29T01:08:30;100927.47;;;-0.05;98.37
5484;BME280;2764;48.794;8.326;2023-01-29T01:09:51;101133.38;;;0.94;98.66
5484;BME280;2764;48.794;8.326;2023-01-29T01:11:11;101089.56;;;0.93;98.44
5484;BME280;2764;48.794;8.326;2023-01-29T01:12:14;101122.00;;;0.82;98.33
5484;BME280;2764;48.794;8.326;2023-01-29T01:13:16;101033.13;;;0.54;98.55
5484;BME280;2764;48.794;8.326;2023-01-29T01:14:18;101006.41;;;0.46;98.79
5484;BME280;2764;48.794;8.326;2023-01-29T01:15:22;101100.59;;;0.86;98.87
5484;BME280;2764;48.794;8.326;2023-01-29T01:16:24;101099.94;;;0.97;97.60
5484;BME280;2764;48.794;8.326;2023-01-29T01:17:27;101089.41;;;0.82;98.40
5484;BME280;2764;48.794;8.326;2023-01-29T01:18:29;101096.91;;;0.71;98.50
5484;BME280;2764;48.794;8.326;2023-01-29T01:19:34;101155.19;;;1.13;99.02
5484;BME280;2764;48.794;8.326;2023-01-29T01:20:36;101131.88;;;1.08;98.27
5484;BME280;2764;48.794;8.326;2023-01-29T01:21:38;101129.41;;;1.13;98.29
5484;BME280;2764;48.794;8.326;2023-01-29T01:22:40;101078.28;;;0.86;98.15
5484;BME280;2764;48.794;8.326;2023-01-29T01:23:42;101161.97;;;1.11;98.14
5484;BME280;2764;48.794;8.326;2023-01-29T01:24:46;101044.28;;;0.53;97.93
5484;BME280;2764;48.794;8.326;2023-01-29T01:25:47;100960.53;;;0.22;98.03
5484;BME280;2764;48.794;8.326;2023-01-29T01:26:49;101132.66;;;1.03;97.83
5484;BME280;2764;48.794;8.326;2023-01-29T01:27:58;101100.66;;;0.87;97.69
5484;BME280;2764;48.794;8.326;2023-01-29T01:28:58;101040.16;;;0.64;97.99
5484;BME280;2764;48.794;8.326;2023-01-29T01:30:00;101127.56;;;1.06;98.28
5484;BME280;2764;48.794;8.326;2023-01-29T01:31:10;101110.97;;;0.90;98.15
5484;BME280;2764;48.794;8.326;2023-01-29T01:32:13;101010.59;;;0.41;98.31
5484;BME280;2764;48.794;8.326;2023-01-29T01:33:14;100997.50;;;0.27;98.10
5484;BME280;2764;48.794;8.326;2023-01-29T01:34:16;101115.16;;;0.84;98.15
5484;BME280;2764;48.794;8.326;2023-01-29T01:35:18;100995.56;;;0.16;98.13
5484;BME280;2764;48.794;8.326;2023-01-29T01:36:19;101108.31;;;0.84;98.30
5484;BME280;2764;48.794;8.326;2023-01-29T01:37:22;101071.81;;;0.60;98.28
5484;BME280;2764;48.794;8.326;2023-01-29T01:38:23;101106.75;;;0.94;98.68
5484;BME280;2764;48.794;8.326;2023-01-29T01:39:25;101112.66;;;0.88;99.07
5484;BME280;2764;48.794;8.326;2023-01-29T01:40:27;101127.59;;;1.09;98.51
5484;BME280;2764;48.794;8.326;2023-01-29T01:41:29;101132.75;;;1.07;98.49
5484;BME280;2764;48.794;8.326;2023-01-29T01:42:31;101124.56;;;0.80;98.29
5484;BME280;2764;48.794;8.326;2023-01-29T01:43:52;101120.69;;;1.05;98.15
5484;BME280;2764;48.794;8.326;2023-01-29T01:45:02;101080.69;;;0.76;97.58
5484;BME280;2764;48.794;8.326;2023-01-29T01:46:06;101102.13;;;0.76;97.98
5484;BME280;2764;48.794;8.326;2023-01-29T01:47:08;101133.38;;;0.94;97.92
5484;BME280;2764;48.794;8.326;2023-01-29T01:48:16;101102.41;;;0.91;97.97
5484;BME280;2764;48.794;8.326;2023-01-29T01:49:20;101150.41;;;0.86;97.82
5484;BME280;2764;48.794;8.326;2023-01-29T01:50:31;101076.38;;;0.75;98.07
5484;BME280;2764;48.794;8.326;2023-01-29T01:51:39;101129.88;;;0.91;97.94
5484;BME280;2764;48.794;8.326;2023-01-29T01:52:47;101103.00;;;0.77;98.21
5484;BME280;2764;48.794;8.326;2023-01-29T01:53:58;101089.25;;;0.73;97.71
5484;BME280;2764;48.794;8.326;2023-01-29T01:55:02;101110.22;;;0.96;97.43
5484;BME280;2764;48.794;8.326;2023-01-29T01:56:07;101147.16;;;0.96;97.53
5484;BME280;2764;48.794;8.326;2023-01-29T01:57:16;101072.75;;;0.63;97.42
5484;BME280;2764;48.794;8.326;2023-01-29T01:58:28;101110.81;;;0.81;97.53
5484;BME280;2764;48.794;8.326;2023-01-29T01:59:32;101117.19;;;1.01;97.99
5484;BME280;2764;48.794;8.326;2023-01-29T02:00:35;101027.63;;;0.34;97.70
5484;BME280;2764;48.794;8.326;2023-01-29T02:01:38;101111.84;;;0.91;97.68
5484;BME280;2764;48.794;8.326;2023-01-29T02:02:45;101126.69;;;1.05;97.40
5484;BME280;2764;48.794;8.326;2023-01-29T02:04:25;101126.72;;;1.08;97.38
5484;BME280;2764;48.794;8.326;2023-01-29T02:05:45;101123.13;;;0.97;97.92
5484;BME280;2764;48.794;8.326;2023-01-29T02:07:07;101028.38;;;0.29;97.61
5484;BME280;2764;48.794;8.326;2023-01-29T02:10:09;101042.91;;;0.25;97.56
5484;BME280;2764;48.794;8.326;2023-01-29T02:11:13;101046.94;;;0.59;97.46
5484;BME280;2764;48.794;8.326;2023-01-29T02:12:15;101030.63;;;0.58;97.03
5484;BME280;2764;48.794;8.326;2023-01-29T02:13:17;101003.31;;;0.19;96.56
5484;BME280;2764;48.794;8.326;2023-01-29T02:14:20;101115.44;;;1.00;97.39
5484;BME280;2764;48.794;8.326;2023-01-29T02:15:24;101026.38;;;0.14;97.52
5484;BME280;2764;48.794;8.326;2023-01-29T02:16:26;101043.91;;;0.33;97.14
5484;BME280;2764;48.794;8.326;2023-01-29T02:17:28;101092.91;;;0.87;96.98
5484;BME280;2764;48.794;8.326;2023-01-29T02:18:32;100951.78;;;0.11;97.04
5484;BME280;2764;48.794;8.326;2023-01-29T02:30:28;101115.38;;;0.96;97.48
5484;BME280;2764;48.794;8.326;2023-01-29T02:31:40;101107.47;;;0.85;97.62
5484;BME280;2764;48.794;8.326;2023-01-29T02:33:08;101074.47;;;0.63;97.90
5484;BME280;2764;48.794;8.326;2023-01-29T02:34:29;101084.84;;;0.67;98.33
5484;BME280;2764;48.794;8.326;2023-01-29T02:35:35;101019.06;;;0.35;98.34
5484;BME280;2764;48.794;8.326;2023-01-29T02:36:58;101112.81;;;0.96;97.97
5484;BME280;2764;48.794;8.326;2023-01-29T02:39:43;101102.13;;;0.76;98.59
5484;BME280;2764;48.794;8.326;2023-01-29T02:40:56;101111.84;;;0.91;98.18
5484;BME280;2764;48.794;8.326;2023-01-29T02:43:44;101110.97;;;0.89;98.24
5484;BME280;2764;48.794;8.326;2023-01-29T02:44:47;101105.72;;;0.83;98.05
5484;BME280;2764;48.794;8.326;2023-01-29T02:46:07;101117.88;;;0.91;97.20
5484;BME280;2764;48.794;8.326;2023-01-29T02:47:21;101120.47;;;0.93;97.58
5484;BME280;2764;48.794;8.326;2023-01-29T02:48:35;101146.03;;;0.81;97.41
5484;BME280;2764;48.794;8.326;2023-01-29T02:49:47;101109.19;;;0.86;97.46
5484;BME280;2764;48.794;8.326;2023-01-29T02:50:58;101104.03;;;0.85;98.08
5484;BME280;2764;48.794;8.326;2023-01-29T02:52:08;101062.31;;;0.56;97.94
5484;BME280;2764;48.794;8.326;2023-01-29T02:53:22;101089.50;;;0.42;98.31
5484;BME280;2764;48.794;8.326;2023-01-29T02:54:40;101117.00;;;0.91;97.60
5484;BME280;2764;48.794;8.326;2023-01-29T02:56:09;101120.38;;;0.87;96.77
5484;BME280;2764;48.794;8.326;2023-01-29T02:57:22;101120.47;;;0.93;97.39
5484;BME280;2764;48.794;8.326;2023-01-29T02:58:35;101114.19;;;0.79;96.59
5484;BME280;2764;48.794;8.326;2023-01-29T03:01:27;101075.88;;;0.46;97.38
5484;BME280;2764;48.794;8.326;2023-01-29T03:02:43;101079.53;;;0.58;96.63
5484;BME280;2764;48.794;8.326;2023-01-29T03:03:51;101161.34;;;0.76;97.44
5484;BME280;2764;48.794;8.326;2023-01-29T03:05:02;100988.53;;;0.07;96.86
5484;BME280;2764;48.794;8.326;2023-01-29T03:06:14;101117.88;;;0.91;97.22
5484;BME280;2764;48.794;8.326;2023-01-29T03:07:24;101059.63;;;0.48;97.33
5484;BME280;2764;48.794;8.326;2023-01-29T03:08:56;101109.69;;;0.65;96.46
5484;BME280;2764;48.794;8.326;2023-01-29T03:09:59;101125.59;;;0.90;96.85
5484;BME280;2764;48.794;8.326;2023-01-29T03:11:05;101111.84;;;0.89;97.24
5484;BME280;2764;48.794;8.326;2023-01-29T03:12:14;100922.03;;;-0.21;97.15
5484;BME280;2764;48.794;8.326;2023-01-29T03:13:39;101114.16;;;0.76;97.40
5484;BME280;2764;48.794;8.326;2023-01-29T03:14:41;101052.00;;;0.08;96.91
5484;BME280;2764;48.794;8.326;2023-01-29T03:17:38;101112.56;;;0.82;97.55
5484;BME280;2764;48.794;8.326;2023-01-29T03:18:47;100999.84;;;0.17;97.19
5484;BME280;2764;48.794;8.326;2023-01-29T03:19:51;101063.69;;;0.36;96.65
5484;BME280;2764;48.794;8.326;2023-01-29T03:21:07;101100.38;;;0.72;96.95
5484;BME280;2764;48.794;8.326;2023-01-29T03:22:31;100997.25;;;0.14;96.82
5484;BME280;2764;48.794;8.326;2023-01-29T03:23:34;101102.78;;;0.63;96.97
5484;BME280;2764;48.794;8.326;2023-01-29T03:24:59;101006.59;;;0.09;96.47
5484;BME280;2764;48.794;8.326;2023-01-29T03:26:24;101081.22;;;0.58;97.06
5484;BME280;2764;48.794;8.326;2023-01-29T03:27:51;101099.63;;;0.79;97.01
5484;BME280;2764;48.794;8.326;2023-01-29T03:29:13;101100.38;;;0.72;97.28
5484;BME280;2764;48.794;8.326;2023-01-29T03:30:36;101056.78;;;0.35;97.01
5484;BME280;2764;48.794;8.326;2023-01-29T03:31:59;101036.03;;;0.26;97.16
5484;BME280;2764;48.794;8.326;2023-01-29T03:33:06;101130.22;;;0.62;97.55
5484;BME280;2764;48.794;8.326;2023-01-29T03:34:13;101073.06;;;0.32;97.83
5484;BME280;2764;48.794;8.326;2023-01-29T03:35:24;101041.94;;;0.20;97.96
5484;BME280;2764;48.794;8.326;2023-01-29T03:36:49;101118.75;;;0.45;98.85
5484;BME280;2764;48.794;8.326;2023-01-29T03:37:56;101158.22;;;0.46;99.03
5484;BME280;2764;48.794;8.326;2023-01-29T03:38:57;101114.41;;;0.43;99.35
5484;BME280;2764;48.794;8.326;2023-01-29T03:40:03;101040.81;;;-0.36;99.29
5484;BME280;2764;48.794;8.326;2023-01-29T03:41:24;101086.72;;;0.30;100.00
5484;BME280;2764;48.794;8.326;2023-01-29T03:44:14;101072.03;;;0.26;100.00
5484;BME280;2764;48.794;8.326;2023-01-29T03:47:08;101103.81;;;0.28;100.00
5484;BME280;2764;48.794;8.326;2023-01-29T03:49:56;101113.59;;;0.45;100.00
5484;BME280;2764;48.794;8.326;2023-01-29T03:51:25;101078.75;;;0.18;100.00
5484;BME280;2764;48.794;8.326;2023-01-29T03:52:40;101114.41;;;0.43;99.50
5484;BME280;2764;48.794;8.326;2023-01-29T03:53:52;101078.75;;;0.18;99.64
5484;BME280;2764;48.794;8.326;2023-01-29T03:56:24;101109.97;;;0.36;100.00
5484;BME280;2764;48.794;8.326;2023-01-29T03:59:14;101079.56;;;0.14;100.00
5484;BME280;2764;48.794;8.326;2023-01-29T04:00:33;101105.56;;;0.29;99.74
5484;BME280;2764;48.794;8.326;2023-01-29T04:01:47;101119.03;;;0.17;99.49
5484;BME280;2764;48.794;8.326;2023-01-29T04:02:55;101079.38;;;0.06;99.58
5484;BME280;2764;48.794;8.326;2023-01-29T04:04:10;101077.69;;;0.07;100.00
5484;BME280;2764;48.794;8.326;2023-01-29T04:05:23;101105.78;;;-0.03;99.88
5484;BME280;2764;48.794;8.326;2023-01-29T04:06:30;101108.91;;;0.25;99.89
5484;BME280;2764;48.794;8.326;2023-01-29T04:07:34;101061.75;;;-0.19;100.00
5484;BME280;2764;48.794;8.326;2023-01-29T04:08:45;101129.53;;;0.28;100.00
5484;BME280;2764;48.794;8.326;2023-01-29T04:09:51;101022.38;;;-0.17;99.96
5484;BME280;2764;48.794;8.326;2023-01-29T04:10:58;101056.94;;;-0.03;99.17
5484;BME280;2764;48.794;8.326;2023-01-29T04:12:09;101100.13;;;0.14;98.50
5484;BME280;2764;48.794;8.326;2023-01-29T04:13:13;101089.06;;;0.18;98.53
5484;BME280;2764;48.794;8.326;2023-01-29T04:14:16;101008.97;;;-0.44;98.49
5484;BME280;2764;48.794;8.326;2023-01-29T04:15:19;101075.66;;;-0.08;99.43
5484;BME280;2764;48.794;8.326;2023-01-29T04:16:28;101129.53;;;0.28;99.87
5484;BME280;2764;48.794;8.326;2023-01-29T04:17:36;101116.78;;;0.32;99.87
5484;BME280;2764;48.794;8.326;2023-01-29T04:18:43;101113.59;;;0.02;99.74
5484;BME280;2764;48.794;8.326;2023-01-29T04:19:45;101136.31;;;0.23;100.00
5484;BME280;2764;48.794;8.326;2023-01-29T04:20:48;101106.19;;;0.17;100.00
5484;BME280;2764;48.794;8.326;2023-01-29T04:21:52;101034.19;;;-0.25;100.00
5484;BME280;2764;48.794;8.326;2023-01-29T04:23:00;101124.28;;;0.23;100.00
5484;BME280;2764;48.794;8.326;2023-01-29T04:24:03;101023.97;;;-0.62;100.00
5484;BME280;2764;48.794;8.326;2023-01-29T04:25:10;101084.56;;;0.08;100.00
5484;BME280;2764;48.794;8.326;2023-01-29T04:26:49;101109.00;;;0.29;100.00
5484;BME280;2764;48.794;8.326;2023-01-29T04:31:13;101074.09;;;-0.02;100.00
5484;BME280;2764;48.794;8.326;2023-01-29T04:32:31;101033.31;;;-0.25;100.00
5484;BME280;2764;48.794;8.326;2023-01-29T04:33:39;101105.31;;;0.17;100.00
5484;BME280;2764;48.794;8.326;2023-01-29T04:34:50;101109.69;;;0.21;100.00
5484;BME280;2764;48.794;8.326;2023-01-29T04:36:23;101109.66;;;0.19;100.00
5484;BME280;2764;48.794;8.326;2023-01-29T04:39:24;101082.75;;;-0.37;100.00
5484;BME280;2764;48.794;8.326;2023-01-29T04:49:33;101109.03;;;-0.11;100.00
5484;BME280;2764;48.794;8.326;2023-01-29T04:53:16;101107.31;;;-0.11;100.00
5484;BME280;2764;48.794;8.326;2023-01-29T04:58:11;101098.06;;;-0.41;100.00
5484;BME280;2764;48.794;8.326;2023-01-29T04:59:15;101053.25;;;-0.93;100.00
5484;BME280;2764;48.794;8.326;2023-01-29T05:00:22;100930.56;;;-1.06;100.00
5484;BME280;2764;48.794;8.326;2023-01-29T05:01:26;101134.50;;;-0.22;100.00
5484;BME280;2764;48.794;8.326;2023-01-29T05:02:32;101017.69;;;-0.76;100.00
5484;BME280;2764;48.794;8.326;2023-01-29T05:03:38;101135.41;;;-0.20;100.00
5484;BME280;2764;48.794;8.326;2023-01-29T05:04:43;101091.41;;;-0.33;100.00
5484;BME280;2764;48.794;8.326;2023-01-29T05:05:47;101046.47;;;-0.52;100.00
5484;BME280;2764;48.794;8.326;2023-01-29T05:06:50;101112.66;;;-0.40;100.00
5484;BME280;2764;48.794;8.326;2023-01-29T05:07:54;101105.56;;;-0.13;100.00
5484;BME280;2764;48.794;8.326;2023-01-29T05:08:58;101107.25;;;-0.14;100.00
5484;BME280;2764;48.794;8.326;2023-01-29T05:10:03;101110.69;;;-0.13;100.00
5484;BME280;2764;48.794;8.326;2023-01-29T05:11:07;101114.13;;;-0.14;100.00
5484;BME280;2764;48.794;8.326;2023-01-29T05:12:12;100994.41;;;-0.84;100.00
5484;BME280;2764;48.794;8.326;2023-01-29T05:13:17;101077.38;;;-0.49;100.00
5484;BME280;2764;48.794;8.326;2023-01-29T05:14:21;101064.16;;;-1.01;100.00
5484;BME280;2764;48.794;8.326;2023-01-29T05:15:30;100902.69;;;-1.29;100.00
5484;BME280;2764;48.794;8.326;2023-01-29T05:16:39;101103.66;;;-0.22;100.00
5484;BME280;2764;48.794;8.326;2023-01-29T05:17:42;101120.69;;;-0.25;100.00
5484;BME280;2764;48.794;8.326;2023-01-29T05:18:45;101004.78;;;-0.79;100.00
5484;BME280;2764;48.794;8.326;2023-01-29T05:19:47;101152.69;;;-0.13;100.00
5484;BME280;2764;48.794;8.326;2023-01-29T05:20:49;101087.06;;;-0.36;100.00
5484;BME280;2764;48.794;8.326;2023-01-29T05:21:51;101102.75;;;-0.24;100.00
5484;BME280;2764;48.794;8.326;2023-01-29T05:22:53;101130.25;;;-0.20;100.00
5484;BME280;2764;48.794;8.326;2023-01-29T05:24:08;101135.72;;;-0.05;100.00
5484;BME280;2764;48.794;8.326;2023-01-29T05:25:23;101129.75;;;-0.05;100.00
5484;BME280;2764;48.794;8.326;2023-01-29T05:26:26;101083.59;;;-0.39;100.00
5484;BME280;2764;48.794;8.326;2023-01-29T05:27:48;101015.03;;;-0.79;100.00
5484;BME280;2764;48.794;8.326;2023-01-29T05:29:06;101131.97;;;-0.20;100.00
5484;BME280;2764;48.794;8.326;2023-01-29T05:30:08;101043.41;;;-0.73;100.00
5484;BME280;2764;48.794;8.326;2023-01-29T05:31:10;101141.41;;;-0.19;100.00
5484;BME280;2764;48.794;8.326;2023-01-29T05:32:13;101105.38;;;-0.21;100.00
5484;BME280;2764;48.794;8.326;2023-01-29T05:33:27;101111.16;;;-0.32;100.00
5484;BME280;2764;48.794;8.326;2023-01-29T05:34:30;101086.78;;;-0.49;100.00
5484;BME280;2764;48.794;8.326;2023-01-29T05:35:31;101056.94;;;-0.43;100.00
5484;BME280;2764;48.794;8.326;2023-01-29T05:36:33;100931.81;;;-1.26;100.00
5484;BME280;2764;48.794;8.326;2023-01-29T05:37:38;101100.28;;;-0.58;100.00
5484;BME280;2764;48.794;8.326;2023-01-29T05:38:41;101096.97;;;-0.52;100.00
5484;BME280;2764;48.794;8.326;2023-01-29T05:39:43;101053.28;;;-0.54;100.00
5484;BME280;2764;48.794;8.326;2023-01-29T05:40:45;101080.69;;;-0.14;100.00
5484;BME280;2764;48.794;8.326;2023-01-29T05:41:47;101069.41;;;-0.21;100.00
5484;BME280;2764;48.794;8.326;2023-01-29T05:42:49;101092.22;;;-0.34;100.00
5484;BME280;2764;48.794;8.326;2023-01-29T05:43:52;100977.94;;;-0.92;100.00
5484;BME280;2764;48.794;8.326;2023-01-29T05:44:53;101015.72;;;-0.88;100.00
5484;BME280;2764;48.794;8.326;2023-01-29T05:45:59;101075.19;;;-0.32;100.00
5484;BME280;2764;48.794;8.326;2023-01-29T05:47:01;101076.78;;;-0.36;100.00
5484;BME280;2764;48.794;8.326;2023-01-29T05:48:05;101024.22;;;-0.51;100.00
5484;BME280;2764;48.794;8.326;2023-01-29T05:49:07;101107.63;;;-0.36;100.00
5484;BME280;2764;48.794;8.326;2023-01-29T05:50:09;101048.56;;;-0.73;100.00
5484;BME280;2764;48.794;8.326;2023-01-29T05:51:11;101027.22;;;-0.69;100.00
5484;BME280;2764;48.794;8.326;2023-01-29T05:52:13;101011.06;;;-1.04;100.00
5484;BME280;2764;48.794;8.326;2023-01-29T05:53:14;101069.97;;;-0.35;100.00
5484;BME280;2764;48.794;8.326;2023-01-29T05:54:16;101087.06;;;-0.36;100.00
5484;BME280;2764;48.794;8.326;2023-01-29T05:55:18;100960.44;;;-1.09;100.00
5484;BME280;2764;48.794;8.326;2023-01-29T05:56:20;101095.72;;;-0.32;100.00
5484;BME280;2764;48.794;8.326;2023-01-29T05:57:22;101008.72;;;-0.93;100.00
5484;BME280;2764;48.794;8.326;2023-01-29T05:58:23;100964.97;;;-0.98;100.00
5484;BME280;2764;48.794;8.326;2023-01-29T05:59:25;101118.97;;;-0.26;100.00
5484;BME280;2764;48.794;8.326;2023-01-29T06:00:27;101103.53;;;-0.28;100.00
5484;BME280;2764;48.794;8.326;2023-01-29T06:01:29;101139.97;;;-0.45;100.00
5484;BME280;2764;48.794;8.326;2023-01-29T06:02:30;101118.91;;;-0.29;100.00
5484;BME280;2764;48.794;8.326;2023-01-29T06:03:32;101036.97;;;-0.93;100.00
5484;BME280;2764;48.794;8.326;2023-01-29T06:04:34;101027.78;;;-1.19;100.00
5484;BME280;2764;48.794;8.326;2023-01-29T06:05:38;101040.22;;;-0.64;100.00
5484;BME280;2764;48.794;8.326;2023-01-29T06:06:40;100986.03;;;-1.12;100.00
5484;BME280;2764;48.794;8.326;2023-01-29T06:07:42;101085.44;;;-0.32;100.00
5484;BME280;2764;48.794;8.326;2023-01-29T06:08:46;101134.22;;;-0.34;100.00
5484;BME280;2764;48.794;8.326;2023-01-29T06:09:48;101121.56;;;-0.62;100.00
5484;BME280;2764;48.794;8.326;2023-01-29T06:10:49;101048.03;;;-0.96;100.00
5484;BME280;2764;48.794;8.326;2023-01-29T06:11:51;101050.44;;;-0.66;100.00
5484;BME280;2764;48.794;8.326;2023-01-29T06:12:53;101127.97;;;-0.46;100.00
5484;BME280;2764;48.794;8.326;2023-01-29T06:13:54;101002.75;;;-1.29;100.00
5484;BME280;2764;48.794;8.326;2023-01-29T06:14:56;101028.38;;;-0.95;100.00
5484;BME280;2764;48.794;8.326;2023-01-29T06:15:57;101100.88;;;-0.32;100.00
5484;BME280;2764;48.794;8.326;2023-01-29T06:16:59;101000.75;;;-1.05;100.00
5484;BME280;2764;48.794;8.326;2023-01-29T06:18:01;101094.00;;;-0.32;100.00
5484;BME280;2764;48.794;8.326;2023-01-29T06:19:02;101004.38;;;-0.97;100.00
5484;BME280;2764;48.794;8.326;2023-01-29T06:20:07;101083.50;;;-0.42;100.00
5484;BME280;2764;48.794;8.326;2023-01-29T06:21:11;101074.09;;;-0.42;100.00
5484;BME280;2764;48.794;8.326;2023-01-29T06:22:13;101049.81;;;-0.56;100.00
5484;BME280;2764;48.794;8.326;2023-01-29T06:23:15;101114.81;;;-0.60;100.00
5484;BME280;2764;48.794;8.326;2023-01-29T06:24:16;100920.69;;;-1.26;100.00
5484;BME280;2764;48.794;8.326;2023-01-29T06:25:18;101059.88;;;-0.65;100.00
5484;BME280;2764;48.794;8.326;2023-01-29T06:26:20;101004.38;;;-0.96;100.00
5484;BME280;2764;48.794;8.326;2023-01-29T06:27:21;100993.28;;;-1.30;100.00
5484;BME280;2764;48.794;8.326;2023-01-29T06:28:24;101069.19;;;-0.68;100.00
5484;BME280;2764;48.794;8.326;2023-01-29T06:29:25;101115.44;;;-0.31;100.00
5484;BME280;2764;48.794;8.326;2023-01-29T06:30:27;101130.53;;;-0.46;100.00
5484;BME280;2764;48.794;8.326;2023-01-29T06:31:28;101145.97;;;-0.45;100.00
5484;BME280;2764;48.794;8.326;2023-01-29T06:32:39;101144.66;;;-0.28;100.00
5484;BME280;2764;48.794;8.326;2023-01-29T06:33:41;101131.84;;;-0.26;100.00
5484;BME280;2764;48.794;8.326;2023-01-29T06:34:43;101089.81;;;-0.67;100.00
5484;BME280;2764;48.794;8.326;2023-01-29T06:35:45;101170.56;;;-0.19;100.00
5484;BME280;2764;48.794;8.326;2023-01-29T06:36:46;101122.16;;;-0.36;100.00
5484;BME280;2764;48.794;8.326;2023-01-29T06:37:48;101075.50;;;-0.56;100.00
5484;BME280;2764;48.794;8.326;2023-01-29T06:38:49;101142.00;;;-0.32;100.00
5484;BME280;2764;48.794;8.326;2023-01-29T06:39:53;101068.47;;;-0.64;100.00
5484;BME280;2764;48.794;8.326;2023-01-29T06:40:56;101123.31;;;-0.24;100.00
5484;BME280;2764;48.794;8.326;2023-01-29T06:41:57;100970.41;;;-1.23;100.00
5484;BME280;2764;48.794;8.326;2023-01-29T06:42:59;100936.56;;;-1.43;100.00
5484;BME280;2764;48.794;8.326;2023-01-29T06:44:01;101109.47;;;-0.30;100.00
5484;BME280;2764;48.794;8.326;2023-01-29T06:45:03;101114.75;;;-0.23;100.00
5484;BME280;2764;48.794;8.326;2023-01-29T06:46:06;101123.31;;;-0.24;100.00